»·PEaware :: VVM717 KAMA-KABQ

VVM717 :: KAMA-KABQ

FLIGHT INFORMATION

Flight Status: Arrived
Operator:
Viva Macau
More flights by this operator :: More flights under this callsign
Pilot: Ty S. (2873)
Aircraft: BOEING 737-200
(B732)
More flights by this aircraft type
Origin: KAMA Amarillo Intl
United States
Destination: KABQ Albuquerque Intl Sunport
United States
More flights between these airports :: More routes between these airports
Route: PNH V12 TCC MIERA2
File this flight plan on PilotEdge
Remarks: CALLSIGN $$$ JACKPOT $$$
Altitude:
(Current/Filed)
32,000ft
Speed:
(Current/Filed)
450kts
Departed: 07-Feb-20 04:56 PM
Arrived: 07-Feb-20 05:44 PM
Distance/Time
Traveled:
241nm/0:48
Distance/Time
To Go:
Arrived

Flight Plot

Page will automatically refresh every two minutes.

Flight plan parsing failed; only flown route is shown


Map Options




Map Legend


Flown Route
Filed Route
Departure Airport
Arrival Airport
Navaid (VOR, NDB)
Fix

Horizontal Profiles

Position Reports

Time Latitude Longitude Heading Altitude Ground
Speed
07-Feb-20 16:06 35.217646 -101.709111 225 3615ft 0kts
07-Feb-20 16:07 35.217646 -101.709111 225 3615ft 0kts
07-Feb-20 16:08 35.217646 -101.709111 225 3615ft 0kts
07-Feb-20 16:09 35.217646 -101.709111 225 3615ft 0kts
07-Feb-20 16:10 35.217646 -101.709111 225 3615ft 0kts
07-Feb-20 16:11 35.217646 -101.709111 225 3615ft 0kts
07-Feb-20 16:12 35.217646 -101.709111 225 3615ft 0kts
07-Feb-20 16:13 35.217646 -101.709111 225 3615ft 0kts
07-Feb-20 16:14 35.217646 -101.709111 225 3615ft 0kts
07-Feb-20 16:15 35.217646 -101.709111 225 3615ft 0kts
07-Feb-20 16:16 35.217646 -101.709111 225 3615ft 0kts
07-Feb-20 16:17 35.217646 -101.709111 225 3615ft 0kts
07-Feb-20 16:18 35.217646 -101.709111 225 3615ft 0kts
07-Feb-20 16:19 35.217646 -101.709111 225 3615ft 0kts
07-Feb-20 16:20 35.217646 -101.709111 225 3615ft 0kts
07-Feb-20 16:21 35.217646 -101.709111 225 3615ft 0kts
07-Feb-20 16:22 35.217646 -101.709111 225 3615ft 0kts
07-Feb-20 16:23 35.217646 -101.709111 225 3615ft 0kts
07-Feb-20 16:24 35.217646 -101.709111 225 3615ft 0kts
07-Feb-20 16:25 35.217646 -101.709111 225 3615ft 0kts
07-Feb-20 16:26 35.217646 -101.709111 225 3615ft 0kts
07-Feb-20 16:27 35.217646 -101.709111 225 3615ft 0kts
07-Feb-20 16:28 35.217646 -101.709111 225 3615ft 0kts
07-Feb-20 16:29 35.217646 -101.709111 225 3615ft 0kts
07-Feb-20 16:30 35.217646 -101.709111 225 3615ft 0kts
07-Feb-20 16:31 35.217646 -101.709111 225 3615ft 0kts
07-Feb-20 16:32 35.217646 -101.709111 225 3615ft 0kts
07-Feb-20 16:33 35.217646 -101.709111 225 3615ft 0kts
07-Feb-20 16:34 35.217646 -101.709111 225 3615ft 0kts
07-Feb-20 16:35 35.217646 -101.709111 225 3615ft 0kts
07-Feb-20 16:36 35.217646 -101.709111 225 3615ft 0kts
07-Feb-20 16:37 35.217646 -101.709111 225 3615ft 0kts
07-Feb-20 16:38 35.217646 -101.709111 225 3615ft 0kts
07-Feb-20 16:39 35.217646 -101.709111 225 3615ft 0kts
07-Feb-20 16:40 35.217646 -101.709111 225 3615ft 0kts
07-Feb-20 16:41 35.217646 -101.709111 225 3615ft 0kts
07-Feb-20 16:42 35.217646 -101.709111 225 3615ft 0kts
07-Feb-20 16:43 35.217646 -101.709111 225 3615ft 0kts
07-Feb-20 16:44 35.217646 -101.709111 225 3615ft 0kts
07-Feb-20 16:45 35.217646 -101.709111 225 3615ft 0kts
07-Feb-20 16:46 35.217646 -101.709111 225 3615ft 0kts
07-Feb-20 16:47 35.217646 -101.709111 225 3615ft 0kts
07-Feb-20 16:48 35.217646 -101.709111 225 3615ft 0kts
07-Feb-20 16:49 35.217775 -101.710048 244 3615ft 3kts
07-Feb-20 16:50 35.217759 -101.710220 276 3615ft 3kts
07-Feb-20 16:51 35.214917 -101.715144 224 3615ft 25kts
07-Feb-20 16:52 35.209140 -101.722367 226 3615ft 34kts
07-Feb-20 16:53 35.203482 -101.729645 253 3615ft 15kts
07-Feb-20 16:54 35.206156 -101.731401 46 3615ft 18kts
07-Feb-20 16:55 35.228515 -101.702333 45 4911ft 156kts
07-Feb-20 16:56 35.268956 -101.659939 1 7241ft 228kts
07-Feb-20 16:57 35.289653 -101.722421 242 10721ft 274kts
07-Feb-20 16:58 35.240752 -101.796397 235 13187ft 300kts
07-Feb-20 16:59 35.231396 -101.890836 273 15281ft 306kts
07-Feb-20 17:00 35.228900 -101.995767 273 17656ft 312kts
07-Feb-20 17:01 35.228742 -102.103505 274 19648ft 320kts
07-Feb-20 17:02 35.227933 -102.213547 274 21373ft 328kts
07-Feb-20 17:03 35.225950 -102.326492 274 22885ft 335kts
07-Feb-20 17:04 35.223331 -102.441582 274 24282ft 343kts
07-Feb-20 17:05 35.220519 -102.559214 275 25639ft 350kts
07-Feb-20 17:06 35.217697 -102.680098 275 26829ft 357kts
07-Feb-20 17:07 35.214938 -102.803003 275 27844ft 366kts
07-Feb-20 17:08 35.205173 -102.928960 263 28674ft 388kts
07-Feb-20 17:09 35.185212 -103.057617 276 29348ft 382kts
07-Feb-20 17:10 35.191282 -103.187952 282 29861ft 387kts
07-Feb-20 17:11 35.193333 -103.321603 275 30492ft 399kts
07-Feb-20 17:13 35.186922 -103.458410 276 31065ft 404kts
07-Feb-20 17:14 35.182681 -103.596106 276 31588ft 408kts
07-Feb-20 17:15 35.177527 -103.736118 275 31942ft 411kts
07-Feb-20 17:16 35.170312 -103.874154 262 31933ft 419kts
07-Feb-20 17:17 35.130040 -104.004939 276 31940ft 393kts
07-Feb-20 17:18 35.143355 -104.131817 287 31984ft 374kts
07-Feb-20 17:19 35.147527 -104.261230 281 31981ft 381kts
07-Feb-20 17:20 35.156644 -104.390019 283 31992ft 378kts
07-Feb-20 17:21 35.153780 -104.520465 273 31982ft 390kts
07-Feb-20 17:22 35.123465 -104.651161 271 31686ft 396kts
07-Feb-20 17:23 35.125739 -104.785996 279 30580ft 398kts
07-Feb-20 17:24 35.120199 -104.920732 272 29092ft 392kts
07-Feb-20 17:25 35.111314 -105.051741 272 26934ft 379kts
07-Feb-20 17:26 35.086695 -105.175961 271 24791ft 365kts
07-Feb-20 17:27 35.074230 -105.297510 265 22784ft 356kts
07-Feb-20 17:28 35.057438 -105.415027 267 20804ft 342kts
07-Feb-20 17:29 35.042218 -105.527927 266 18841ft 330kts
07-Feb-20 17:29 35.029096 -105.619006 265 17172ft 323kts
07-Feb-20 17:31 35.010038 -105.744034 263 15054ft 311kts
07-Feb-20 17:32 34.993642 -105.845703 263 14957ft 294kts
07-Feb-20 17:33 34.977367 -105.947138 263 14969ft 314kts
07-Feb-20 17:33 34.963605 -106.036466 263 14959ft 322kts
07-Feb-20 17:35 34.945044 -106.159870 263 12766ft 314kts
07-Feb-20 17:36 34.929625 -106.263503 263 10865ft 311kts
07-Feb-20 17:36 34.916218 -106.347794 262 10044ft 285kts
07-Feb-20 17:37 34.906155 -106.439132 277 9207ft 256kts
07-Feb-20 17:39 34.924810 -106.534588 296 8238ft 238kts
07-Feb-20 17:39 34.947513 -106.589621 303 7720ft 192kts
07-Feb-20 17:40 34.975826 -106.632918 325 6899ft 137kts
07-Feb-20 17:41 35.010680 -106.642127 26 5873ft 144kts
07-Feb-20 17:42 35.034322 -106.616053 46 5363ft 41kts
07-Feb-20 17:43 35.036468 -106.615155 289 5363ft 0kts
07-Feb-20 17:44 35.034410 -106.618503 300 5363ft 11kts
07-Feb-20 17:45 35.035776 -106.618970 231 5363ft 0kts
07-Feb-20 17:46 35.035776 -106.618970 231 5363ft 0kts
07-Feb-20 17:47 35.035776 -106.618970 231 5363ft 0kts
07-Feb-20 17:48 35.035776 -106.618970 231 5363ft 0kts
07-Feb-20 17:49 35.035776 -106.618970 231 5363ft 0kts
07-Feb-20 17:50 35.035776 -106.618970 231 5363ft 0kts
07-Feb-20 17:51 35.035776 -106.618970 231 5363ft 0kts
07-Feb-20 17:52 35.035776 -106.618970 231 5363ft 0kts
07-Feb-20 17:53 35.035776 -106.618970 231 5363ft 0kts
07-Feb-20 17:54 35.035776 -106.618970 231 5363ft 0kts
07-Feb-20 17:55 35.035776 -106.618970 231 5363ft 0kts
07-Feb-20 17:56 35.035776 -106.618970 231 5363ft 0kts
07-Feb-20 17:57 35.035776 -106.618970 231 5363ft 0kts

Navigation Log

Ident Type
Flight plan parsing failed, navigation log unavailable